createdAt,value
2018-05-09T00:04:41.891Z,7.03
2018-05-09T00:09:25.305Z,3.90
2018-05-09T00:14:08.630Z,5.10
2018-05-09T00:18:51.940Z,4.67
2018-05-09T00:23:35.376Z,5.33
2018-05-09T00:28:18.651Z,4.33
2018-05-09T00:33:02.033Z,6.77
2018-05-09T00:37:45.352Z,3.83
2018-05-09T00:42:28.808Z,5.10
2018-05-09T00:47:12.272Z,5.13
2018-05-09T00:51:55.681Z,4.27
2018-05-09T00:56:39.015Z,4.53
2018-05-09T01:01:23.070Z,5.43
2018-05-09T01:06:07.402Z,4.83
2018-05-09T01:10:50.900Z,4.50
2018-05-09T01:15:35.131Z,4.33
2018-05-09T01:20:18.420Z,4.63
2018-05-09T01:25:01.782Z,5.97
2018-05-09T01:29:45.992Z,5.27
2018-05-09T01:34:29.351Z,7.03
2018-05-09T01:39:12.743Z,8.70
2018-05-09T01:43:56.920Z,6.33
2018-05-09T01:48:40.220Z,6.30
2018-05-09T01:53:23.527Z,5.40
2018-05-09T01:58:06.937Z,3.80
2018-05-09T02:02:50.227Z,3.30
2018-05-09T02:07:33.584Z,6.07
2018-05-09T02:12:16.931Z,5.13
2018-05-09T02:17:01.056Z,3.17
2018-05-09T02:21:44.355Z,4.93
2018-05-09T02:26:27.747Z,6.07
2018-05-09T02:31:11.132Z,4.23
2018-05-09T02:35:54.466Z,3.80
2018-05-09T02:40:38.585Z,3.50
2018-05-09T02:45:22.720Z,5.63
2018-05-09T02:50:06.122Z,7.30
2018-05-09T02:54:50.172Z,6.47
2018-05-09T02:59:33.566Z,7.20
2018-05-09T03:04:16.928Z,10.60
2018-05-09T03:09:00.241Z,4.43
2018-05-09T03:13:43.669Z,5.97
2018-05-09T03:18:26.960Z,4.70
2018-05-09T03:23:10.344Z,7.27
2018-05-09T03:27:53.728Z,11.27
2018-05-09T03:32:37.015Z,5.50
2018-05-09T03:37:21.106Z,5.27
2018-05-09T03:42:04.430Z,7.73
2018-05-09T03:46:47.815Z,4.83
2018-05-09T03:51:31.211Z,6.60
2018-05-09T03:56:14.630Z,7.20
2018-05-09T04:00:57.954Z,5.83
2018-05-09T04:05:53.759Z,4.87
2018-05-09T04:10:37.175Z,8.63
2018-05-09T04:15:20.574Z,5.90
2018-05-09T04:20:03.940Z,6.07
2018-05-09T04:24:47.339Z,6.50
2018-05-09T04:29:30.773Z,7.63
2018-05-09T04:34:14.877Z,4.80
2018-05-09T04:38:58.427Z,8.43
2018-05-09T04:43:42.887Z,10.23
2018-05-09T04:48:26.446Z,10.60
2018-05-09T04:53:10.681Z,7.10
2018-05-09T04:57:54.643Z,12.40
2018-05-09T05:02:38.725Z,9.50
2018-05-09T05:07:22.967Z,8.17
2018-05-09T05:12:07.218Z,8.90
2018-05-09T05:16:51.265Z,7.60
2018-05-09T05:21:34.735Z,6.47
2018-05-09T05:26:18.142Z,7.43
2018-05-09T05:31:02.308Z,10.63
2018-05-09T05:35:45.709Z,6.87
2018-05-09T05:40:28.983Z,7.23
2018-05-09T05:45:12.575Z,6.10
2018-05-09T05:49:55.835Z,8.70
2018-05-09T05:54:39.120Z,7.17
2018-05-09T05:59:29.303Z,5.03
2018-05-09T06:04:13.467Z,7.37
2018-05-09T06:08:56.818Z,12.20
2018-05-09T06:13:40.257Z,6.97
2018-05-09T06:18:26.593Z,6.50
2018-05-09T06:23:09.925Z,5.10
2018-05-09T06:27:53.370Z,3.83
2018-05-09T06:32:37.427Z,4.93
2018-05-09T06:37:20.779Z,5.30
2018-05-09T06:42:04.123Z,5.73
2018-05-09T06:46:47.472Z,4.33
2018-05-09T06:51:31.010Z,3.80
2018-05-09T06:56:14.392Z,5.67
2018-05-09T07:00:57.716Z,3.63
2018-05-09T07:05:41.127Z,4.27
2018-05-09T07:10:25.281Z,2.37
2018-05-09T07:15:08.742Z,5.90
2018-05-09T07:19:52.180Z,3.73
2018-05-09T07:24:36.303Z,6.13
2018-05-09T07:29:19.698Z,7.93
2018-05-09T07:34:03.011Z,6.90
2018-05-09T07:38:46.363Z,7.40
2018-05-09T07:43:29.680Z,4.93
2018-05-09T07:48:13.806Z,7.33
2018-05-09T07:52:57.136Z,5.07
2018-05-09T07:57:40.472Z,5.80
2018-05-09T08:02:23.801Z,5.57
2018-05-09T08:07:07.162Z,4.77
2018-05-09T08:11:50.448Z,2.50
2018-05-09T08:16:33.831Z,3.50
2018-05-09T08:21:17.246Z,4.03
2018-05-09T08:26:00.606Z,3.70
2018-05-09T08:30:44.682Z,2.43
2018-05-09T08:35:28.112Z,3.27
2018-05-09T08:40:11.431Z,4.77
2018-05-09T08:44:54.789Z,7.10
2018-05-09T08:49:38.153Z,4.83
2018-05-09T08:54:21.546Z,5.60
2018-05-09T08:59:04.883Z,5.27
2018-05-09T09:03:48.221Z,8.43
2018-05-09T09:08:31.573Z,4.20
2018-05-09T09:13:14.854Z,6.40
2018-05-09T09:17:58.202Z,6.93
2018-05-09T09:22:41.527Z,5.47
2018-05-09T09:27:24.859Z,7.53
2018-05-09T09:32:08.168Z,4.72
2018-05-09T09:36:51.516Z,5.87
2018-05-09T09:41:34.868Z,5.55
2018-05-09T09:46:18.950Z,5.47
2018-05-09T09:51:02.263Z,5.23
2018-05-09T09:55:45.716Z,4.00
2018-05-09T10:00:29.057Z,5.53
2018-05-09T10:05:12.373Z,8.93
2018-05-09T10:09:56.482Z,3.93
2018-05-09T10:14:40.591Z,6.60
2018-05-09T10:19:24.853Z,5.33
2018-05-09T10:24:08.256Z,5.60
2018-05-09T10:28:51.603Z,4.73
2018-05-09T10:33:35.679Z,6.73
2018-05-09T10:38:19.016Z,4.37
2018-05-09T10:43:02.326Z,5.83
2018-05-09T10:47:45.644Z,6.47
2018-05-09T10:52:28.955Z,6.63
2018-05-09T10:57:12.316Z,4.07
2018-05-09T11:01:55.644Z,4.27
2018-05-09T11:06:39.303Z,5.73
2018-05-09T11:11:22.622Z,5.60
2018-05-09T11:16:05.958Z,3.37
2018-05-09T11:20:49.300Z,5.03
2018-05-09T11:25:32.589Z,5.30
2018-05-09T11:30:15.928Z,3.28
2018-05-09T11:34:59.232Z,4.37
2018-05-09T11:39:42.527Z,2.47
2018-05-09T11:44:26.603Z,3.90
2018-05-09T11:49:10.001Z,3.35
2018-05-09T11:53:53.311Z,3.20
2018-05-09T11:58:36.754Z,3.50
2018-05-09T12:03:20.134Z,6.65
2018-05-09T12:08:03.447Z,4.90
2018-05-09T12:12:46.840Z,8.13
2018-05-09T12:17:30.135Z,3.62
2018-05-09T12:22:14.944Z,4.35
2018-05-09T12:26:58.267Z,4.47
2018-05-09T12:31:42.358Z,3.55
2018-05-09T12:36:26.484Z,5.57
2018-05-09T12:41:09.921Z,7.68
2018-05-09T12:45:54.978Z,7.87
2018-05-09T12:50:38.354Z,6.78
2018-05-09T12:55:21.672Z,8.70
2018-05-09T13:00:04.959Z,7.35
2018-05-09T13:04:48.256Z,8.07
2018-05-09T13:09:31.742Z,6.32
2018-05-09T13:14:15.080Z,6.05
2018-05-09T13:18:58.453Z,7.95
2018-05-09T13:23:41.754Z,8.93
2018-05-09T13:28:25.115Z,3.95
2018-05-09T13:33:08.445Z,7.57
2018-05-09T13:37:51.773Z,4.28
2018-05-09T13:42:35.088Z,4.80
2018-05-09T13:47:18.427Z,11.50
2018-05-09T13:52:03.312Z,8.55
2018-05-09T13:56:46.871Z,6.73
2018-05-09T14:01:30.594Z,7.37
2018-05-09T14:06:17.107Z,8.37
2018-05-09T14:11:03.048Z,6.23
2018-05-09T14:15:47.220Z,11.03
2018-05-09T14:20:31.446Z,10.73
2018-05-09T14:25:14.833Z,9.17
2018-05-09T14:29:58.190Z,7.03
2018-05-09T14:34:41.550Z,9.70
2018-05-09T14:39:25.788Z,10.87
2018-05-09T14:44:09.199Z,8.23
2018-05-09T14:48:53.274Z,7.63
2018-05-09T14:53:36.617Z,7.20
2018-05-09T14:58:19.930Z,8.97
2018-05-09T15:03:03.266Z,7.53
2018-05-09T15:07:47.537Z,7.00
2018-05-09T15:12:30.932Z,10.17
2018-05-09T15:17:14.283Z,5.95
2018-05-09T15:21:57.715Z,7.77
2018-05-09T15:26:41.184Z,7.10
2018-05-09T15:31:24.581Z,8.57
2018-05-09T15:36:07.962Z,7.07
2018-05-09T15:40:51.329Z,8.87
2018-05-09T15:45:34.688Z,9.83
2018-05-09T15:50:18.161Z,4.83
2018-05-09T15:55:02.192Z,5.83
2018-05-09T15:59:45.604Z,6.30
2018-05-09T16:04:29.843Z,6.83
2018-05-09T16:09:14.205Z,8.65
2018-05-09T16:13:58.617Z,7.47
2018-05-09T16:18:42.288Z,7.80
2018-05-09T16:23:25.881Z,8.47
2018-05-09T16:28:09.433Z,6.93
2018-05-09T16:32:52.894Z,8.73
2018-05-09T16:37:36.202Z,10.03
2018-05-09T16:42:19.648Z,6.13
2018-05-09T16:47:03.784Z,9.83
2018-05-09T16:51:47.408Z,7.37
2018-05-09T16:56:30.781Z,8.57
2018-05-09T17:01:14.141Z,7.47
2018-05-09T17:05:57.694Z,9.40
2018-05-09T17:10:41.239Z,9.83
2018-05-09T17:15:24.625Z,5.03
2018-05-09T17:20:07.955Z,9.40
2018-05-09T17:24:52.046Z,8.83
2018-05-09T17:29:35.562Z,6.97
2018-05-09T17:34:18.919Z,11.03
2018-05-09T17:39:02.298Z,12.27
2018-05-09T17:43:45.646Z,17.77
2018-05-09T17:48:29.043Z,20.07
2018-05-09T17:53:12.413Z,11.00
2018-05-09T17:57:55.834Z,8.43
2018-05-09T18:02:39.990Z,10.90
2018-05-09T18:07:24.187Z,12.07
2018-05-09T18:12:08.489Z,7.37
2018-05-09T18:16:51.866Z,9.47
2018-05-09T18:21:36.325Z,12.17
2018-05-09T18:26:19.767Z,7.33
2018-05-09T18:31:03.046Z,8.27
2018-05-09T18:35:47.152Z,12.13
2018-05-09T18:40:31.279Z,8.70
2018-05-09T18:45:14.638Z,10.73
2018-05-09T18:49:58.001Z,9.97
2018-05-09T18:54:42.246Z,10.00
2018-05-09T18:59:25.642Z,8.03
2018-05-09T19:04:09.852Z,11.07
2018-05-09T19:08:54.155Z,11.37
2018-05-09T19:13:37.789Z,7.73
2018-05-09T19:18:21.918Z,11.60
2018-05-09T19:23:05.593Z,7.33
2018-05-09T19:27:49.029Z,13.70
2018-05-09T19:32:32.427Z,8.80
2018-05-09T19:37:17.016Z,8.57
2018-05-09T19:42:00.726Z,8.80
2018-05-09T19:46:45.590Z,9.07
2018-05-09T19:51:29.009Z,11.27
2018-05-09T19:56:13.560Z,7.57
2018-05-09T20:00:56.886Z,9.77
2018-05-09T20:05:40.388Z,10.77
2018-05-09T20:10:23.758Z,13.17
2018-05-09T20:15:08.884Z,13.55
2018-05-09T20:19:52.205Z,10.53
2018-05-09T20:24:35.581Z,15.43
2018-05-09T20:29:18.918Z,9.23
2018-05-09T20:34:03.144Z,13.10
2018-05-09T20:38:46.703Z,12.00
2018-05-09T20:43:30.087Z,11.07
2018-05-09T20:48:14.714Z,14.63
2018-05-09T20:52:58.764Z,10.10
2018-05-09T20:57:42.083Z,9.70
2018-05-09T21:02:25.533Z,11.43
2018-05-09T21:07:08.909Z,11.33
2018-05-09T21:12:04.076Z,9.47
2018-05-09T21:16:47.444Z,8.70
2018-05-09T21:21:30.780Z,11.40
2018-05-09T21:26:14.155Z,9.77
2018-05-09T21:30:57.533Z,11.47
2018-05-09T21:35:41.962Z,10.23
2018-05-09T21:40:25.336Z,16.50
2018-05-09T21:45:09.435Z,21.27
2018-05-09T21:49:52.873Z,24.97
2018-05-09T21:54:36.987Z,17.57
2018-05-09T21:59:21.124Z,16.30
2018-05-09T22:04:04.422Z,21.40
2018-05-09T22:08:48.135Z,18.57
2018-05-09T22:13:31.652Z,14.53
2018-05-09T22:18:14.990Z,15.60
2018-05-09T22:22:59.131Z,14.13
2018-05-09T22:27:42.466Z,15.97
2018-05-09T22:32:25.746Z,15.40
2018-05-09T22:37:09.199Z,15.07
2018-05-09T22:41:52.530Z,14.20
2018-05-09T22:46:36.688Z,12.50
2018-05-09T22:51:19.981Z,14.97
2018-05-09T22:56:03.287Z,14.07
2018-05-09T23:00:46.765Z,13.90
2018-05-09T23:05:31.317Z,15.03
2018-05-09T23:10:15.683Z,13.33
2018-05-09T23:14:59.033Z,14.40
2018-05-09T23:19:42.350Z,11.63
2018-05-09T23:24:25.700Z,9.90
2018-05-09T23:29:09.044Z,15.13
2018-05-09T23:33:52.488Z,11.90
2018-05-09T23:38:35.805Z,14.43
2018-05-09T23:43:19.172Z,13.17
2018-05-09T23:48:02.500Z,10.93
2018-05-09T23:52:45.853Z,11.90
2018-05-09T23:57:29.218Z,13.63
